createdAt,value
2023-05-14T00:01:09.960Z,10.40
2023-05-14T00:03:41.322Z,10.20
2023-05-14T00:11:10.344Z,10.10
2023-05-14T00:13:38.523Z,10.70
2023-05-14T00:16:07.318Z,11.10
2023-05-14T00:18:36.743Z,12.40
2023-05-14T00:21:06.500Z,12.30
2023-05-14T00:23:35.272Z,10.40
2023-05-14T00:26:06.089Z,11.10
2023-05-14T00:28:36.804Z,10.30
2023-05-14T00:31:06.807Z,11.90
2023-05-14T00:33:36.332Z,9.60
2023-05-14T00:36:04.803Z,11.70
2023-05-14T00:38:32.799Z,10.60
2023-05-14T00:41:03.528Z,11.80
2023-05-14T00:46:04.724Z,10.10
2023-05-14T00:51:02.903Z,9.80
2023-05-14T00:53:32.667Z,9.40
2023-05-14T00:56:00.846Z,8.60
2023-05-14T00:58:29.066Z,11.10
2023-05-14T01:00:58.612Z,9.80
2023-05-14T01:03:30.480Z,9.00
2023-05-14T01:06:11.091Z,9.30
2023-05-14T01:08:52.089Z,9.60
2023-05-14T01:11:27.157Z,9.20
2023-05-14T01:14:04.571Z,9.10
2023-05-14T01:16:38.405Z,9.50
2023-05-14T01:19:22.426Z,7.60
2023-05-14T01:21:54.414Z,9.10
2023-05-14T01:26:54.817Z,9.90
2023-05-14T01:29:24.447Z,8.80
2023-05-14T01:31:56.411Z,7.60
2023-05-14T01:34:27.077Z,7.40
2023-05-14T01:37:00.409Z,8.70
2023-05-14T01:39:33.280Z,9.80
2023-05-14T01:42:05.667Z,8.40
2023-05-14T01:44:37.797Z,9.60
2023-05-14T01:47:06.634Z,7.50
2023-05-14T01:49:34.858Z,8.30
2023-05-14T01:52:04.870Z,9.80
2023-05-14T01:54:34.311Z,9.00
2023-05-14T01:57:02.424Z,8.40
2023-05-14T02:04:31.281Z,8.30
2023-05-14T02:09:31.910Z,6.70
2023-05-14T02:12:01.475Z,8.80
2023-05-14T02:14:32.252Z,8.30
2023-05-14T02:17:01.630Z,9.50
2023-05-14T02:19:31.724Z,9.50
2023-05-14T02:22:02.239Z,9.50
2023-05-14T02:24:31.734Z,8.00
2023-05-14T02:29:30.692Z,9.20
2023-05-14T02:32:00.148Z,9.10
2023-05-14T02:34:29.611Z,6.30
2023-05-14T02:36:59.048Z,6.30
2023-05-14T02:39:27.242Z,9.10
2023-05-14T02:41:56.837Z,9.00
2023-05-14T02:44:25.128Z,6.30
2023-05-14T02:46:54.647Z,8.50
2023-05-14T02:49:23.065Z,7.90
2023-05-14T02:51:53.025Z,7.90
2023-05-14T02:54:23.748Z,7.90
2023-05-14T02:56:53.371Z,6.20
2023-05-14T02:59:24.945Z,8.90
2023-05-14T03:04:25.971Z,6.40
2023-05-14T03:06:54.291Z,8.10
2023-05-14T03:11:52.253Z,6.00
2023-05-14T03:14:23.250Z,7.50
2023-05-14T03:19:21.129Z,7.40
2023-05-14T03:21:50.612Z,8.80
2023-05-14T03:24:20.125Z,7.80
2023-05-14T03:26:49.590Z,8.20
2023-05-14T03:31:49.964Z,8.70
2023-05-14T03:34:19.370Z,7.10
2023-05-14T03:36:48.802Z,6.10
2023-05-14T03:39:19.735Z,6.30
2023-05-14T03:41:49.547Z,6.90
2023-05-14T03:44:18.942Z,7.00
2023-05-14T03:46:49.678Z,8.90
2023-05-14T03:49:19.210Z,6.40
2023-05-14T03:51:48.600Z,9.00
2023-05-14T03:54:16.760Z,8.10
2023-05-14T03:56:46.225Z,9.00
2023-05-14T03:59:15.749Z,8.10
2023-05-14T04:01:44.446Z,9.20
2023-05-14T04:04:14.122Z,8.30
2023-05-14T04:11:42.014Z,6.50
2023-05-14T04:16:40.401Z,6.80
2023-05-14T04:19:09.973Z,9.60
2023-05-14T04:21:40.711Z,8.20
2023-05-14T04:24:12.107Z,8.30
2023-05-14T04:26:41.638Z,9.80
2023-05-14T04:31:39.671Z,9.90
2023-05-14T04:34:09.168Z,9.50
2023-05-14T04:39:12.316Z,10.10
2023-05-14T04:46:43.128Z,10.70
2023-05-14T04:51:42.387Z,9.00
2023-05-14T04:59:10.247Z,10.20
2023-05-14T05:01:39.962Z,10.50
2023-05-14T05:04:08.815Z,12.90
2023-05-14T05:09:09.904Z,12.40
2023-05-14T05:11:41.101Z,12.10
2023-05-14T05:14:10.674Z,14.70
2023-05-14T05:16:41.284Z,13.40
2023-05-14T05:21:40.819Z,15.10
2023-05-14T05:24:11.880Z,14.80
2023-05-14T05:26:41.285Z,15.50
2023-05-14T05:34:09.868Z,17.10
2023-05-14T05:36:39.216Z,18.40
2023-05-14T05:39:07.212Z,17.30
2023-05-14T05:41:37.996Z,17.60
2023-05-14T05:44:06.744Z,17.30
2023-05-14T05:46:36.516Z,17.80
2023-05-14T05:49:06.156Z,17.80
2023-05-14T05:51:34.418Z,17.80
2023-05-14T05:56:32.331Z,18.20
2023-05-14T05:59:04.427Z,19.10
2023-05-14T06:01:34.127Z,18.70
2023-05-14T06:04:05.556Z,18.20
2023-05-14T06:06:36.134Z,17.90
2023-05-14T06:09:04.735Z,20.30
2023-05-14T06:11:35.325Z,18.60
2023-05-14T06:14:06.013Z,19.30
2023-05-14T06:16:36.773Z,21.20
2023-05-14T06:19:06.409Z,20.20
2023-05-14T06:21:37.267Z,20.60
2023-05-14T06:24:09.180Z,20.40
2023-05-14T06:29:08.545Z,21.00
2023-05-14T06:31:37.925Z,21.60
2023-05-14T06:34:09.618Z,21.60
2023-05-14T06:36:40.366Z,21.80
2023-05-14T06:39:09.828Z,22.20
2023-05-14T06:41:37.973Z,22.50
2023-05-14T06:44:08.784Z,22.80
2023-05-14T06:49:08.326Z,22.70
2023-05-14T06:51:38.998Z,23.00
2023-05-14T06:54:07.334Z,22.90
2023-05-14T06:56:36.816Z,23.40
2023-05-14T06:59:07.405Z,22.70
2023-05-14T07:01:39.635Z,22.80
2023-05-14T07:04:09.117Z,21.90
2023-05-14T07:06:38.721Z,22.60
2023-05-14T07:09:08.277Z,22.20
2023-05-14T07:11:39.000Z,22.50
2023-05-14T07:14:07.208Z,22.30
2023-05-14T07:16:38.512Z,21.00
2023-05-14T07:19:06.955Z,20.50
2023-05-14T07:21:36.759Z,20.10
2023-05-14T07:24:05.878Z,19.10
2023-05-14T07:26:34.274Z,19.00
2023-05-14T07:31:33.543Z,18.90
2023-05-14T07:34:03.127Z,18.70
2023-05-14T07:36:31.596Z,18.30
2023-05-14T07:41:33.775Z,19.30
2023-05-14T07:44:04.416Z,17.80
2023-05-14T07:46:33.807Z,18.00
2023-05-14T07:49:05.957Z,18.50
2023-05-14T07:51:34.316Z,18.10
2023-05-14T07:54:05.132Z,19.70
2023-05-14T07:56:33.414Z,19.90
2023-05-14T07:59:04.060Z,19.30
2023-05-14T08:01:32.372Z,20.10
2023-05-14T08:06:34.076Z,20.60
2023-05-14T08:09:02.516Z,21.30
2023-05-14T08:11:30.853Z,22.80
2023-05-14T08:13:59.051Z,24.50
2023-05-14T08:16:28.679Z,24.40
2023-05-14T08:18:56.988Z,23.40
2023-05-14T08:21:27.731Z,23.60
2023-05-14T08:23:57.359Z,23.60
2023-05-14T08:26:27.075Z,23.50
2023-05-14T08:28:55.460Z,23.70
2023-05-14T08:31:26.504Z,24.10
2023-05-14T08:33:55.975Z,24.40
2023-05-14T08:36:24.372Z,24.80
2023-05-14T08:38:52.793Z,24.70
2023-05-14T08:41:22.678Z,24.80
2023-05-14T08:44:05.582Z,25.30
2023-05-14T08:46:36.001Z,26.00
2023-05-14T08:49:17.195Z,25.50
2023-05-14T08:51:47.108Z,25.40
2023-05-14T08:54:19.506Z,25.60
2023-05-14T08:56:51.719Z,25.60
2023-05-14T08:59:21.550Z,25.80
2023-05-14T09:01:55.257Z,26.10
2023-05-14T09:04:27.373Z,26.50
2023-05-14T09:06:56.540Z,26.80
2023-05-14T09:09:26.435Z,26.70
2023-05-14T09:11:57.406Z,26.30
2023-05-14T09:14:28.030Z,26.10
2023-05-14T09:16:57.873Z,26.30
2023-05-14T09:19:27.932Z,26.60
2023-05-14T09:21:59.049Z,27.00
2023-05-14T09:24:30.402Z,27.20
2023-05-14T09:27:04.355Z,27.30
2023-05-14T09:29:34.971Z,26.90
2023-05-14T09:32:08.635Z,25.10
2023-05-14T09:34:38.321Z,24.90
2023-05-14T09:37:09.826Z,24.20
2023-05-14T09:39:39.776Z,24.30
2023-05-14T09:42:11.852Z,23.80
2023-05-14T09:44:40.646Z,22.10
2023-05-14T09:47:10.528Z,23.30
2023-05-14T09:49:42.030Z,24.90
2023-05-14T09:52:10.265Z,25.10
2023-05-14T09:54:41.096Z,24.90
2023-05-14T09:57:11.745Z,24.70
2023-05-14T09:59:39.922Z,25.30
2023-05-14T10:02:17.190Z,26.10
2023-05-14T10:04:47.501Z,27.20
2023-05-14T10:07:23.040Z,27.40
2023-05-14T10:10:02.284Z,26.50
2023-05-14T10:12:39.510Z,24.80
2023-05-14T10:15:18.760Z,24.80
2023-05-14T10:17:54.553Z,23.90
2023-05-14T10:20:26.636Z,23.60
2023-05-14T10:22:57.698Z,23.20
2023-05-14T10:25:26.789Z,22.70
2023-05-14T10:27:59.250Z,23.60
2023-05-14T10:30:28.698Z,22.60
2023-05-14T10:33:10.766Z,24.10
2023-05-14T10:36:00.237Z,23.00
2023-05-14T10:38:30.155Z,23.20
2023-05-14T10:41:04.674Z,24.20
2023-05-14T10:43:39.538Z,25.60
2023-05-14T10:46:11.053Z,26.60
2023-05-14T10:48:42.769Z,26.70
2023-05-14T10:51:13.337Z,26.80
2023-05-14T10:53:43.488Z,26.30
2023-05-14T10:56:15.434Z,24.60
2023-05-14T10:58:46.202Z,24.30
2023-05-14T11:01:16.314Z,23.70
2023-05-14T11:03:47.212Z,23.10
2023-05-14T11:06:18.088Z,21.30
2023-05-14T11:08:48.133Z,22.20
2023-05-14T11:11:19.712Z,21.60
2023-05-14T11:13:52.967Z,21.10
2023-05-14T11:16:24.277Z,21.60
2023-05-14T11:19:04.441Z,20.80
2023-05-14T11:24:06.562Z,20.10
2023-05-14T11:26:36.607Z,20.50
2023-05-14T11:29:08.254Z,20.90
2023-05-14T11:31:37.389Z,21.90
2023-05-14T11:34:08.661Z,20.30
2023-05-14T11:36:38.186Z,20.50
2023-05-14T11:39:08.313Z,21.20
2023-05-14T11:41:36.634Z,21.10
2023-05-14T11:44:09.138Z,20.20
2023-05-14T11:46:38.861Z,19.50
2023-05-14T11:49:07.656Z,19.70
2023-05-14T11:51:38.362Z,19.90
2023-05-14T11:54:06.551Z,20.00
2023-05-14T11:56:35.888Z,20.60
2023-05-14T11:59:04.540Z,21.20
2023-05-14T12:01:39.957Z,21.60
2023-05-14T12:04:09.494Z,22.50
2023-05-14T12:06:40.822Z,24.00
2023-05-14T12:09:08.973Z,24.80
2023-05-14T12:11:39.684Z,25.60
2023-05-14T12:14:14.876Z,25.90
2023-05-14T12:16:47.349Z,27.00
2023-05-14T12:19:20.693Z,25.90
2023-05-14T12:21:51.973Z,24.30
2023-05-14T12:24:22.660Z,24.70
2023-05-14T12:26:52.702Z,24.70
2023-05-14T12:29:22.868Z,25.20
2023-05-14T12:31:53.972Z,24.30
2023-05-14T12:34:22.287Z,23.70
2023-05-14T12:36:52.203Z,24.00
2023-05-14T12:39:22.325Z,24.40
2023-05-14T12:41:51.816Z,25.10
2023-05-14T12:44:22.586Z,25.50
2023-05-14T12:46:54.684Z,24.50
2023-05-14T12:49:24.158Z,24.80
2023-05-14T12:52:07.607Z,24.80
2023-05-14T12:54:44.322Z,25.40
2023-05-14T12:57:13.756Z,24.80
2023-05-14T12:59:43.345Z,23.20
2023-05-14T13:02:16.720Z,22.80
2023-05-14T13:07:17.716Z,22.90
2023-05-14T13:09:47.037Z,23.00
2023-05-14T13:12:16.449Z,22.90
2023-05-14T13:14:47.029Z,23.60
2023-05-14T13:17:17.890Z,22.60
2023-05-14T13:19:47.295Z,24.30
2023-05-14T13:22:17.036Z,24.20
2023-05-14T13:24:46.927Z,24.00
2023-05-14T13:27:15.175Z,24.80
2023-05-14T13:29:44.706Z,24.60
2023-05-14T13:32:14.093Z,24.50
2023-05-14T13:34:45.287Z,23.00
2023-05-14T13:39:45.129Z,21.70
2023-05-14T13:42:13.735Z,21.40
2023-05-14T13:47:12.178Z,20.40
2023-05-14T13:49:40.718Z,20.80
2023-05-14T13:52:11.458Z,21.30
2023-05-14T13:57:09.426Z,20.00
2023-05-14T13:59:37.829Z,20.90
2023-05-14T14:04:37.730Z,19.80
2023-05-14T14:07:06.180Z,19.70
2023-05-14T14:09:37.003Z,21.00
2023-05-14T14:12:06.993Z,20.10
2023-05-14T14:14:36.322Z,20.50
2023-05-14T14:17:05.787Z,19.40
2023-05-14T14:19:35.115Z,19.60
2023-05-14T14:22:04.836Z,21.20
2023-05-14T14:24:35.419Z,20.50
2023-05-14T14:27:06.733Z,20.30
2023-05-14T14:29:35.532Z,20.30
2023-05-14T14:32:04.538Z,19.70
2023-05-14T14:37:04.076Z,20.80
2023-05-14T14:39:33.421Z,20.30
2023-05-14T14:42:01.708Z,22.30
2023-05-14T14:44:33.728Z,21.10
2023-05-14T14:47:03.105Z,20.40
2023-05-14T14:49:33.667Z,21.30
2023-05-14T14:52:01.992Z,21.10
2023-05-14T14:54:31.647Z,20.80
2023-05-14T14:57:01.032Z,22.00
2023-05-14T15:02:02.886Z,22.10
2023-05-14T15:04:34.700Z,22.80
2023-05-14T15:07:04.558Z,25.30
2023-05-14T15:09:33.971Z,24.00
2023-05-14T15:12:03.610Z,24.50
2023-05-14T15:14:34.407Z,25.00
2023-05-14T15:17:02.692Z,24.90
2023-05-14T15:19:32.306Z,24.20
2023-05-14T15:22:01.766Z,24.10
2023-05-14T15:24:30.429Z,24.50
2023-05-14T15:26:59.872Z,25.10
2023-05-14T15:29:28.660Z,25.30
2023-05-14T15:32:00.756Z,25.40
2023-05-14T15:34:29.093Z,25.80
2023-05-14T15:36:58.499Z,26.00
2023-05-14T15:39:28.032Z,25.10
2023-05-14T15:41:57.711Z,23.50
2023-05-14T15:44:28.276Z,23.30
2023-05-14T15:46:59.093Z,23.50
2023-05-14T15:49:28.513Z,24.00
2023-05-14T15:51:57.979Z,23.70
2023-05-14T15:54:28.300Z,23.40
2023-05-14T15:56:57.229Z,23.50
2023-05-14T15:59:26.632Z,23.50
2023-05-14T16:01:54.866Z,24.00
2023-05-14T16:04:24.449Z,24.00
2023-05-14T16:06:53.805Z,22.70
2023-05-14T16:09:23.162Z,23.30
2023-05-14T16:11:51.358Z,22.60
2023-05-14T16:14:20.641Z,22.20
2023-05-14T16:16:50.106Z,22.10
2023-05-14T16:19:19.527Z,21.60
2023-05-14T16:21:49.270Z,22.70
2023-05-14T16:24:19.535Z,21.90
2023-05-14T16:26:50.246Z,21.50
2023-05-14T16:29:20.046Z,21.70
2023-05-14T16:31:50.915Z,20.90
2023-05-14T16:34:20.280Z,21.80
2023-05-14T16:36:49.901Z,22.50
2023-05-14T16:39:19.366Z,22.40
2023-05-14T16:41:48.698Z,21.30
2023-05-14T16:44:18.130Z,21.60
2023-05-14T16:46:48.149Z,21.30
2023-05-14T16:49:16.849Z,21.10
2023-05-14T16:51:46.213Z,21.10
2023-05-14T16:54:15.939Z,20.60
2023-05-14T16:56:48.166Z,21.10
2023-05-14T16:59:18.354Z,21.20
2023-05-14T17:01:47.988Z,20.50
2023-05-14T17:04:16.319Z,19.70
2023-05-14T17:06:44.632Z,21.60
2023-05-14T17:09:15.421Z,19.90
2023-05-14T17:11:43.641Z,20.40
2023-05-14T17:14:11.907Z,20.80
2023-05-14T17:16:42.300Z,20.70
2023-05-14T17:19:10.631Z,19.80
2023-05-14T17:24:10.223Z,20.60
2023-05-14T17:26:39.785Z,20.20
2023-05-14T17:29:09.241Z,20.20
2023-05-14T17:31:37.449Z,19.30
2023-05-14T17:39:04.232Z,19.90
2023-05-14T17:41:34.812Z,20.40
2023-05-14T17:44:05.813Z,20.50
2023-05-14T17:49:03.892Z,19.40
2023-05-14T17:51:32.176Z,19.40
2023-05-14T17:54:01.559Z,19.40
2023-05-14T17:56:31.268Z,18.70
2023-05-14T17:59:00.672Z,18.40
2023-05-14T18:01:31.871Z,18.20
2023-05-14T18:04:01.443Z,17.80
2023-05-14T18:06:30.996Z,18.20
2023-05-14T18:11:33.819Z,17.80
2023-05-14T18:14:04.776Z,18.00
2023-05-14T18:16:34.405Z,16.90
2023-05-14T18:21:33.892Z,17.30
2023-05-14T18:24:03.865Z,16.20
2023-05-14T18:26:34.209Z,15.80
2023-05-14T18:29:04.015Z,17.60
2023-05-14T18:31:34.855Z,17.60
2023-05-14T18:34:03.402Z,15.80
2023-05-14T18:36:34.069Z,17.40
2023-05-14T18:41:32.115Z,16.10
2023-05-14T18:46:31.917Z,17.50
2023-05-14T18:49:02.646Z,16.40
2023-05-14T18:51:32.062Z,15.80
2023-05-14T18:54:01.624Z,15.10
2023-05-14T18:56:31.311Z,14.70
2023-05-14T18:59:00.673Z,14.60
2023-05-14T19:01:29.919Z,15.40
2023-05-14T19:03:58.179Z,14.70
2023-05-14T19:06:32.039Z,14.40
2023-05-14T19:09:02.697Z,13.20
2023-05-14T19:11:31.020Z,14.40
2023-05-14T19:14:00.380Z,14.10
2023-05-14T19:16:30.056Z,13.20
2023-05-14T19:18:59.696Z,14.00
2023-05-14T19:21:30.408Z,12.90
2023-05-14T19:26:28.906Z,14.60
2023-05-14T19:28:58.993Z,14.80
2023-05-14T19:31:29.213Z,14.70
2023-05-14T19:33:58.707Z,14.60
2023-05-14T19:36:28.153Z,14.20
2023-05-14T19:39:00.182Z,12.60
2023-05-14T19:41:30.142Z,12.20
2023-05-14T19:46:27.340Z,12.20
2023-05-14T19:48:56.848Z,12.10
2023-05-14T19:53:57.855Z,11.90
2023-05-14T19:56:27.475Z,13.90
2023-05-14T19:58:56.845Z,12.30
2023-05-14T20:01:26.849Z,12.10
2023-05-14T20:03:56.266Z,13.80
2023-05-14T20:06:25.629Z,12.80
2023-05-14T20:08:55.014Z,14.10
2023-05-14T20:11:26.959Z,13.30
2023-05-14T20:13:56.383Z,13.80
2023-05-14T20:18:57.493Z,12.00
2023-05-14T20:21:26.961Z,12.00
2023-05-14T20:23:58.731Z,13.00
2023-05-14T20:26:29.411Z,12.90
2023-05-14T20:28:59.978Z,14.30
2023-05-14T20:31:29.442Z,14.00
2023-05-14T20:33:57.557Z,12.80
2023-05-14T20:36:26.070Z,12.40
2023-05-14T20:38:55.944Z,12.10
2023-05-14T20:41:26.279Z,11.60
2023-05-14T20:43:57.049Z,11.60
2023-05-14T20:46:26.615Z,11.70
2023-05-14T20:48:58.562Z,11.90
2023-05-14T20:51:27.925Z,12.70
2023-05-14T20:53:58.500Z,11.00
2023-05-14T20:56:29.085Z,12.60
2023-05-14T20:58:59.823Z,11.90
2023-05-14T21:01:29.243Z,13.20
2023-05-14T21:03:58.836Z,10.80
2023-05-14T21:06:28.409Z,10.80
2023-05-14T21:08:57.765Z,11.10
2023-05-14T21:11:27.165Z,13.10
2023-05-14T21:13:55.435Z,12.10
2023-05-14T21:16:27.572Z,11.60
2023-05-14T21:18:58.452Z,12.10
2023-05-14T21:23:56.318Z,11.20
2023-05-14T21:26:25.793Z,12.30
2023-05-14T21:28:56.373Z,11.30
2023-05-14T21:31:28.509Z,10.50
2023-05-14T21:33:59.295Z,12.30
2023-05-14T21:36:28.756Z,11.50
2023-05-14T21:41:28.113Z,10.40
2023-05-14T21:43:57.549Z,12.30
2023-05-14T21:46:28.867Z,10.00
2023-05-14T21:48:57.502Z,9.80
2023-05-14T21:51:25.875Z,9.50
2023-05-14T21:53:54.446Z,10.60
2023-05-14T21:56:24.464Z,10.70
2023-05-14T21:58:52.650Z,9.80
2023-05-14T22:01:20.906Z,11.40
2023-05-14T22:03:50.594Z,10.30
2023-05-14T22:08:52.505Z,10.10
2023-05-14T22:11:20.629Z,9.90
2023-05-14T22:13:48.885Z,9.10
2023-05-14T22:16:17.068Z,11.50
2023-05-14T22:18:45.436Z,10.30
2023-05-14T22:21:17.516Z,11.30
2023-05-14T22:23:47.986Z,10.20
2023-05-14T22:26:17.929Z,11.30
2023-05-14T22:28:48.662Z,10.00
2023-05-14T22:31:19.287Z,8.60
2023-05-14T22:33:47.461Z,10.30
2023-05-14T22:36:17.031Z,8.60
2023-05-14T22:38:46.433Z,8.50
2023-05-14T22:41:18.594Z,9.20
2023-05-14T22:43:48.660Z,9.30
2023-05-14T22:46:18.138Z,10.30
2023-05-14T22:48:50.195Z,10.20
2023-05-14T22:51:20.885Z,8.10
2023-05-14T22:53:51.627Z,8.10
2023-05-14T22:56:22.191Z,10.50
2023-05-14T23:01:21.117Z,9.40
2023-05-14T23:03:50.636Z,9.80
2023-05-14T23:06:20.403Z,8.40
2023-05-14T23:08:49.972Z,8.50
2023-05-14T23:18:51.163Z,7.70
2023-05-14T23:21:21.920Z,8.70
2023-05-14T23:23:50.059Z,10.10
2023-05-14T23:26:19.499Z,9.90
2023-05-14T23:31:19.365Z,7.10
2023-05-14T23:33:47.490Z,8.90
2023-05-14T23:36:17.052Z,9.90
2023-05-14T23:38:47.028Z,8.10
2023-05-14T23:41:17.567Z,7.30
2023-05-14T23:43:48.860Z,7.20
2023-05-14T23:46:17.580Z,9.50
2023-05-14T23:48:46.975Z,8.30
2023-05-14T23:53:48.554Z,9.10
2023-05-14T23:56:16.805Z,9.40
2023-05-14T23:58:46.301Z,7.20
